Skip Navigation Links Skip Navigation Links

Current Weather

Oslo / Gardermoen, Norway

For information only: do not use for flight planning or navigation.
Latest weather
Observation time Sunday, August 25, 2019 6:50 AM CEST
Local time Sunday, August 25, 2019 7:11 AM CEST
Flight conditions Instrument Meteorological Conditions
Winds
Wind direction South (170°)
Wind speed 8 mph
Visibility 6.2 mi.
Present weather mist
Sky condition
Ceiling 600 ft. overcast
Cloud layer scattered clouds 300 ft.
Cloud layer scattered clouds 400 ft.
Cloud layer overcast 600 ft.
Cloud layer broken clouds 1,000 ft.
Temperature 59°F
Dewpoint 57°F
Altimeter 30.24 in.Hg
Derived measurements
Relative humidity 94%
Density altitude -121 ft.
METAR ENGM 250450Z 17007KT 9999 5000SE BR SCT003 OVC006 15/14 Q1024 TEMPO SCT004 BKN010

Settings

Location code

InnerDrive.Weather 4.0.6770.0 Release CLR 4.0.30319.42000
Copyright ©2018 Inner Drive Technology. All rights reserved. Portions Copyright ©1986-2018 David Braverman.

Find weather

Site navigation


Skip Navigation Links

Place info

Page info

PayPal - The safer, easier way to pay online!

Return home.

Copyright ©2019 Inner Drive Technology. Purveyors of fine, hand-crafted computer software. Page printed 2019-08-25T05:11:45 UTC.